Date,TemperatureHighF,TemperatureAvgF,TemperatureLowF,DewpointHighF,DewpointAvgF,DewpointLowF,HumidityHigh,HumidityAvg,HumidityLow,PressureMaxIn,PressureMinIn,WindSpeedMaxMPH,WindSpeedAvgMPH,GustSpeedMaxMPH,PrecipitationSumIn
2013-1-19,60,50,46,47,39,-100,96,74,52,29.97,29.77,4,-28,0,0.00
2013-1-20,61,53,45,50,46,38,98,79,59,29.83,29.70,8,3,0,0.00
2013-1-21,63,53,41,50,43,34,80,69,56,29.85,29.68,13,3,0,0.00
2013-1-22,53,41,30,42,18,9,68,41,22,30.11,29.76,7,2,0,0.00
2013-1-23,44,35,27,31,13,4,58,41,24,30.20,29.92,7,3,0,0.00
2013-1-24,51,39,26,40,22,7,74,52,34,30.29,29.77,12,5,0,0.00
2013-1-25,39,30,23,33,22,8,96,72,45,30.27,29.82,5,2,0,0.18
2013-1-26,44,35,30,34,31,27,95,84,69,30.11,29.84,6,3,0,0.00
2013-1-27,46,36,29,30,28,24,96,74,45,30.29,30.11,8,3,0,0.00
2013-1-28,57,47,40,46,41,36,88,81,67,30.18,29.99,4,2,0,0.01
2013-1-29,57,50,47,53,49,47,99,98,88,29.92,29.90,4,2,0,0.00
2013-1-30,67,62,56,61,59,56,99,91,80,29.84,29.35,14,5,0,0.00
2013-1-31,65,56,52,62,46,27,96,69,37,29.66,29.23,15,8,0,0.29
2013-2-1,53,48,31,35,23,10,56,39,21,30.09,29.76,12,6,0,0.00
2013-2-2,43,38,34,41,27,14,93,67,38,30.15,29.76,4,1,0,0.00
2013-2-3,53,45,37,43,34,29,84,65,42,29.75,29.58,7,2,0,0.00
2013-2-4,48,42,30,38,28,23,74,60,38,29.89,29.72,6,2,0,0.00
2013-2-5,59,52,45,48,42,36,87,71,55,29.82,29.67,10,4,0,0.00
2013-2-6,66,55,45,47,42,38,93,65,37,30.04,29.75,6,3,0,0.00
2013-2-7,61,53,45,54,49,43,97,86,65,30.06,29.62,15,5,0,2.05
2013-2-8,61,56,47,61,55,46,99,96,77,29.61,29.23,10,6,0,2.45
2013-2-9,55,46,36,34,27,23,76,50,30,30.15,29.78,6,2,0,0.00
2013-2-10,57,44,30,45,35,27,91,75,43,30.28,30.10,7,2,0,0.00
2013-2-11,61,58,49,59,55,46,97,91,80,30.11,29.73,12,6,0,0.20
2013-2-12,54,53,53,52,51,51,94,94,93,29.79,29.76,2,0,0,0.01
2013-2-13,58,52,48,55,50,47,98,94,84,29.80,29.43,6,3,0,0.53
2013-2-14,53,48,42,47,40,37,94,75,58,29.90,29.59,6,2,0,0.00
2013-2-15,59,47,38,44,39,37,98,77,44,29.91,29.77,5,1,0,0.00
2013-2-16,56,45,35,44,39,33,95,81,62,29.76,29.49,8,4,0,0.11
2013-2-17,40,34,28,33,21,11,95,63,32,30.12,29.65,10,4,0,0.03
2013-2-18,50,45,25,38,25,15,67,46,31,30.29,30.14,9,4,0,0.00
2013-2-19,60,51,40,54,47,38,97,85,66,30.13,29.72,13,5,0,0.29
2013-2-20,58,57,56,25,23,22,30,27,25,29.84,29.82,7,4,0,0.00
2013-2-21,56,43,33,36,32,23,80,65,34,30.06,29.89,7,2,0,0.00
2013-2-22,52,45,40,47,37,29,95,74,63,30.13,29.89,7,4,0,0.00
2013-2-23,61,53,48,60,52,48,99,97,94,29.88,29.61,5,2,0,0.90
2013-2-24,61,51,47,51,48,46,99,92,64,29.71,29.51,4,2,0,0.01
2013-2-25,48,43,40,44,36,32,99,77,60,30.00,29.83,10,6,0,0.00
2013-2-26,65,58,42,64,56,37,98,96,84,29.91,29.41,10,6,0,1.11
2013-2-27,57,53,50,56,51,42,99,91,66,29.57,29.43,14,4,0,0.00
2013-2-28,56,54,53,38,36,35,51,50,49,29.52,29.52,4,4,0,0.00
2013-3-1,47,46,45,35,34,34,66,64,63,29.69,29.68,2,1,0,0.00
2013-3-2,55,42,36,34,32,30,81,68,42,29.69,29.57,6,2,0,0.00
2013-3-3,50,44,36,29,28,26,70,53,40,29.69,29.65,4,3,0,0.00
2013-3-4,38,38,38,21,21,21,51,51,51,29.89,29.88,3,2,0,0.00
2013-3-6,60,48,42,56,37,27,89,66,42,29.71,29.31,17,8,0,0.09
2013-3-7,59,51,42,34,32,31,71,49,36,29.92,29.72,8,5,0,0.00
2013-3-8,56,48,40,30,28,26,62,46,33,30.02,29.89,10,6,0,0.00
2013-3-9,64,46,40,35,32,30,76,63,32,30.12,30.05,6,3,0,0.00
2013-3-10,64,51,47,46,45,41,94,80,43,30.14,30.09,5,3,0,0.00
2013-3-11,48,47,46,47,46,45,95,94,93,30.10,30.02,4,2,0,0.00
2013-3-12,61,60,59,60,59,57,99,97,91,29.75,29.64,12,5,0,1.54
2013-3-13,56,54,51,51,47,40,82,76,67,29.73,29.68,5,4,0,0.00
2013-3-15,53,53,53,42,42,42,65,65,65,29.81,29.81,7,7,0,0.00
2013-3-16,60,57,55,52,50,47,81,77,75,29.75,29.56,12,8,0,0.00
2013-3-17,50,48,48,44,43,42,83,82,79,29.98,29.89,10,6,0,0.00
2013-3-18,49,49,48,46,45,44,88,86,84,29.95,29.91,8,6,0,0.00
2013-3-19,56,55,55,55,55,54,98,98,97,29.62,29.60,1,0,0,0.29
2013-3-20,53,53,53,21,21,21,29,29,29,29.92,29.92,3,3,0,0.00
2013-3-21,57,55,53,32,30,29,41,39,36,29.53,29.52,8,6,0,0.00
2013-3-22,48,47,46,35,31,25,63,54,43,29.84,29.83,5,4,0,0.00
2013-3-23,59,49,42,40,34,29,86,57,32,29.85,29.71,5,2,0,0.00
2013-3-24,57,48,42,54,44,38,97,88,68,29.75,29.22,16,4,0,0.42
2013-3-25,52,51,50,40,37,35,64,59,56,29.40,29.39,9,8,0,0.00
2013-3-26,45,43,41,32,32,32,69,64,61,29.89,29.84,5,2,0,0.00
2013-3-27,58,44,34,32,29,26,78,60,29,29.95,29.88,6,3,0,0.00
2013-3-28,61,52,34,30,28,25,71,42,28,30.01,29.94,5,2,0,0.00
2013-3-29,56,51,38,42,36,29,72,57,36,30.11,30.01,10,4,0,0.00
2013-3-30,63,57,48,48,45,41,86,65,46,30.04,29.93,7,3,0,0.00
2013-3-31,64,57,48,55,52,44,97,82,69,29.94,29.67,16,6,0,0.04
2013-4-1,63,58,56,58,56,54,96,91,80,29.70,29.61,9,4,0,0.01
2013-4-2,63,53,46,54,42,34,96,66,35,29.95,29.69,7,3,0,0.00
2013-4-3,58,50,46,46,40,33,93,70,39,30.12,29.93,7,3,0,0.00
2013-4-4,61,51,45,60,44,35,99,77,59,30.15,29.58,13,5,0,1.78
2013-4-5,61,52,45,61,49,44,99,89,69,29.83,29.54,12,3,0,0.18
2013-4-6,64,51,41,46,42,38,99,75,44,30.13,29.83,8,3,0,0.00
2013-4-7,70,57,43,55,49,41,98,78,54,30.12,29.98,6,3,0,0.00
2013-4-8,72,65,58,61,58,54,88,79,68,30.04,29.93,8,4,0,0.00
2013-4-9,73,66,61,63,60,58,91,83,71,30.04,29.91,9,5,0,0.00
2013-4-10,75,66,61,64,61,60,99,86,67,29.96,29.81,12,6,0,0.00
2013-4-11,76,67,62,68,64,60,96,88,75,29.84,29.68,9,5,0,0.00
2013-4-12,71,67,64,68,65,63,99,94,87,29.69,29.49,13,6,0,0.97
2013-4-13,71,62,52,64,55,48,99,77,52,29.83,29.55,10,4,0,0.00
2013-4-14,76,63,50,59,54,48,98,74,46,29.94,29.83,5,2,0,0.00
2013-4-15,74,66,59,63,60,55,93,82,67,30.00,29.79,16,4,0,0.55
2013-4-16,80,69,62,66,62,59,97,81,58,30.08,29.98,6,3,0,0.00
2013-4-17,77,67,57,64,60,55,98,80,62,30.05,29.94,5,2,0,0.00
2013-4-18,78,70,61,65,63,59,96,79,61,30.02,29.89,6,2,0,0.00
2013-4-19,77,71,66,70,67,64,95,88,80,29.90,29.68,16,6,0,0.25
2013-4-20,70,59,52,68,54,47,99,83,71,30.06,29.66,15,4,0,0.36
2013-4-21,65,56,49,49,45,37,93,68,48,30.26,30.05,14,6,0,0.00
2013-4-22,57,54,50,53,50,45,97,89,82,30.22,29.97,14,5,0,0.49
2013-4-23,67,58,52,56,53,50,97,85,62,30.01,29.91,8,4,0,0.00
2013-4-24,71,61,48,62,56,47,98,85,69,30.04,29.87,10,3,0,0.00
2013-4-25,74,63,53,63,57,48,94,81,66,30.09,29.87,9,4,0,0.04
2013-4-26,74,60,48,51,46,37,97,64,31,30.22,30.07,9,3,0,0.00
2013-4-27,77,63,54,55,48,40,91,62,28,30.20,30.10,10,3,0,0.00
2013-4-28,76,65,52,58,49,38,83,59,28,30.11,29.93,6,2,0,0.00
2013-4-29,67,65,63,63,60,56,96,86,75,29.93,29.79,10,3,0,0.31
2013-4-30,81,68,62,65,62,60,98,83,55,29.91,29.79,7,2,0,0.00
2013-5-1,76,67,60,66,61,58,94,83,63,30.06,29.88,7,3,0,0.08
2013-5-2,71,64,60,64,60,56,96,85,63,30.09,30.00,10,4,0,0.08
2013-5-3,72,63,57,60,55,49,92,76,55,30.01,29.94,11,6,0,0.00
2013-5-4,68,59,55,58,56,52,96,89,71,29.94,29.84,11,5,0,0.30
2013-5-5,75,64,57,64,60,55,97,86,70,29.86,29.77,9,4,0,0.06
2013-5-6,73,66,62,65,62,59,96,86,70,29.79,29.67,9,4,0,0.80
2013-5-7,72,63,56,62,58,54,98,84,62,29.78,29.66,7,2,0,0.02
2013-5-8,75,66,57,62,59,54,96,78,52,29.85,29.75,10,4,0,0.00
2013-5-9,76,69,65,65,62,60,90,80,67,29.88,29.77,9,4,0,0.00
2013-5-10,77,70,65,68,65,63,94,84,66,29.90,29.82,9,4,0,0.00
2013-5-11,79,73,69,71,68,66,93,85,75,29.83,29.65,14,6,0,0.00
2013-5-12,80,72,67,67,64,52,93,76,59,29.77,29.57,11,4,0,0.00
2013-5-13,76,65,54,54,46,38,75,52,31,29.94,29.77,9,3,0,0.00
2013-5-14,75,63,48,51,42,33,80,50,24,30.06,29.95,10,3,0,0.00
2013-5-15,75,69,65,64,60,50,81,72,59,29.96,29.75,17,8,0,0.00
2013-5-16,78,72,67,67,65,63,86,79,69,29.79,29.72,11,6,0,0.00
2013-5-17,82,74,70,69,67,65,90,78,61,29.93,29.77,8,3,0,0.00
2013-5-18,82,74,68,72,68,65,93,82,73,29.98,29.91,8,2,0,0.00
2013-5-19,82,75,68,70,68,65,93,79,63,29.98,29.91,6,2,0,0.00
2013-5-20,82,75,70,70,68,66,90,81,65,29.97,29.86,10,4,0,0.00
2013-5-21,81,75,71,71,70,69,92,84,71,29.88,29.79,11,5,0,0.00
2013-5-22,83,77,72,73,71,70,91,83,71,29.86,29.77,10,5,0,0.00
2013-5-23,79,74,70,72,70,68,94,88,77,29.80,29.63,9,3,0,0.30
2013-5-24,84,74,60,71,63,47,94,70,46,29.93,29.57,6,3,0,0.00
2013-5-25,76,64,51,52,43,38,76,50,26,30.05,29.92,6,2,0,0.00
2013-5-26,78,68,57,58,55,52,88,66,46,30.04,29.95,5,1,0,0.00
2013-5-27,81,70,56,64,56,48,97,66,36,30.09,30.00,5,1,0,0.00
2013-5-28,82,75,68,69,66,63,87,74,59,30.08,29.99,5,2,0,0.00
2013-5-29,84,76,68,71,68,65,94,76,61,30.07,29.98,7,3,0,0.00
2013-5-30,88,77,67,73,69,64,94,78,62,30.09,30.01,6,2,0,0.00
2013-5-31,86,78,71,74,72,69,93,80,67,30.05,29.95,8,3,0,0.00
2013-6-1,84,78,74,73,72,70,90,80,68,29.99,29.88,10,4,0,0.00
2013-6-2,84,78,74,73,72,70,88,80,68,29.90,29.76,11,5,0,0.00
2013-6-3,81,75,69,74,72,67,94,89,80,29.77,29.65,9,5,0,0.56
2013-6-4,85,76,70,74,70,65,96,81,59,29.88,29.67,9,3,0,0.00
2013-6-5,85,76,69,66,64,62,86,68,46,29.89,29.82,7,3,0,0.00
2013-6-6,83,77,71,73,69,66,89,77,68,29.84,29.67,6,3,0,0.04
2013-6-8,83,78,76,76,74,73,91,87,79,29.89,29.76,11,6,0,0.00
2013-6-9,85,79,75,78,74,69,94,87,78,29.95,29.88,8,4,0,0.00
2013-6-10,85,79,75,76,74,72,92,86,76,29.93,29.77,14,6,0,0.00
2013-6-11,83,79,75,75,73,70,93,83,75,29.77,29.66,13,8,0,0.05
2013-6-12,88,81,74,76,74,70,95,79,59,29.76,29.66,9,4,0,0.00
2013-6-13,87,82,75,79,76,67,95,84,58,29.68,29.41,17,7,0,0.02
2013-6-14,86,75,68,69,63,57,95,68,42,29.81,29.47,10,3,0,0.24
2013-6-15,87,75,60,63,60,57,90,61,39,29.91,29.81,10,4,0,0.00
2013-6-16,84,79,76,70,67,64,76,68,57,29.96,29.86,14,7,0,0.00
2013-6-17,85,79,76,74,70,67,83,75,68,29.88,29.78,14,6,0,0.00
2013-6-18,86,79,72,77,74,70,94,86,74,29.80,29.60,13,7,0,0.53
2013-6-19,79,73,69,74,70,65,97,89,74,29.89,29.63,8,3,0,1.66
2013-6-20,87,76,68,71,65,56,92,73,36,29.99,29.86,8,4,0,0.00
2013-6-21,90,77,69,75,70,64,91,80,61,30.00,29.94,9,3,0,0.00
2013-6-22,83,76,72,75,72,69,96,88,73,30.00,29.95,5,2,0,1.10
2013-6-23,85,79,73,77,74,71,94,86,76,30.03,29.95,9,2,0,0.01
2013-6-24,86,80,77,77,75,73,92,85,76,30.04,29.91,10,5,0,0.00
2013-6-25,86,80,74,78,75,71,90,85,73,29.95,29.82,12,6,0,0.01
2013-6-26,86,81,78,78,75,73,91,84,75,29.86,29.74,14,7,0,0.00
2013-6-27,85,80,76,78,75,70,90,84,74,29.74,29.58,14,8,0,0.00
2013-6-28,85,81,77,78,77,72,92,87,80,29.61,29.44,17,9,0,0.03
2013-6-29,82,80,78,77,75,73,91,85,77,29.61,29.45,22,10,0,0.00
2013-6-30,83,78,72,77,74,71,97,89,82,29.72,29.57,14,5,0,2.06
2013-7-1,82,78,75,76,74,71,91,88,80,29.87,29.68,10,4,0,0.17
2013-7-2,89,80,73,78,75,71,93,83,69,30.02,29.87,10,3,0,0.09
2013-7-3,90,82,75,78,76,73,95,82,67,30.08,29.98,8,3,0,0.47
2013-7-4,89,83,78,77,75,72,87,77,66,30.11,30.05,6,2,0,0.00
2013-7-5,89,82,77,78,75,73,91,79,67,30.12,30.01,7,3,0,0.09
2013-7-6,88,82,78,76,74,72,84,76,63,30.08,29.97,9,3,0,0.00
2013-7-7,87,82,78,75,72,71,80,74,65,30.03,29.89,15,6,0,0.00
2013-7-8,86,82,79,75,73,71,81,74,65,30.00,29.92,11,6,0,0.00
2013-7-9,87,81,73,77,75,71,96,81,71,30.00,29.91,9,5,0,1.00
2013-7-10,88,82,79,77,74,73,86,78,68,29.94,29.80,10,6,0,0.00
2013-7-11,86,81,76,77,74,72,94,82,72,29.82,29.69,13,6,0,0.34
2013-7-12,80,77,71,75,73,70,97,88,80,29.79,29.68,11,3,0,3.14
2013-7-13,88,80,74,77,74,72,96,83,68,30.01,29.77,11,2,0,0.30
2013-7-14,91,83,76,77,75,71,89,78,62,30.08,30.00,8,3,0,0.02
2013-7-15,93,83,75,79,75,73,93,78,62,30.09,30.03,5,2,0,0.00
2013-7-16,92,83,75,78,75,72,93,77,62,30.06,29.96,9,3,0,0.00
2013-7-17,95,85,76,79,74,71,90,72,49,29.99,29.89,7,2,0,0.00
2013-7-18,91,83,74,76,73,71,93,74,56,29.94,29.86,8,2,0,0.00
2013-7-19,88,83,81,78,76,74,84,79,72,29.95,29.83,16,7,0,0.00
2013-7-20,87,82,76,78,75,74,94,79,70,29.89,29.79,17,8,0,0.45
2013-7-21,123,81,76,100,74,71,92,79,67,29.84,29.73,12,7,0,0.12
2013-7-22,86,81,78,76,74,72,84,79,70,29.76,29.64,13,6,0,0.00
2013-7-23,84,80,78,75,73,72,84,80,73,29.67,29.53,16,7,0,0.00
2013-7-24,89,81,78,77,74,72,85,79,67,29.61,29.52,9,4,0,0.00
2013-7-25,89,81,74,76,73,68,87,77,64,29.79,29.55,7,2,0,0.06
2013-7-26,89,82,71,73,70,67,87,68,52,29.87,29.79,6,3,0,0.00
2013-7-27,88,77,69,75,69,66,88,78,58,29.84,29.76,5,1,0,0.00
2013-7-28,88,81,76,77,74,71,89,79,69,29.83,29.68,12,4,0,0.33
2013-7-29,86,79,71,76,73,68,91,81,67,29.95,29.82,9,3,0,0.83
2013-7-30,87,78,71,77,72,68,90,83,66,30.00,29.93,5,1,0,0.00
2013-7-31,87,80,74,76,72,67,91,78,56,29.95,29.84,5,2,0,0.00
2013-8-1,82,79,72,76,74,69,93,86,79,29.83,29.69,13,5,0,0.95
2013-8-2,87,82,78,79,76,73,87,84,76,29.85,29.70,14,5,0,0.00
2013-8-3,87,82,80,80,77,76,88,84,74,29.85,29.73,11,6,0,0.00
2013-8-4,88,80,71,78,73,67,91,82,63,29.82,29.66,7,2,0,0.27
2013-8-5,89,77,66,70,64,57,92,68,40,29.88,29.80,6,1,0,0.00
2013-8-6,88,78,70,72,69,63,88,72,59,29.89,29.80,4,1,0,0.00
2013-8-7,87,80,71,76,72,68,90,78,63,29.91,29.85,4,1,0,0.00
2013-8-8,89,82,78,79,76,74,88,83,70,29.88,29.81,5,2,0,0.00
2013-8-9,88,83,81,80,78,76,87,84,76,29.90,29.82,11,7,0,0.00
2013-8-10,88,83,76,80,78,74,92,85,76,29.92,29.82,14,6,0,0.13
2013-8-11,90,84,76,80,78,74,92,82,74,29.93,29.82,8,4,0,0.00
2013-8-12,90,84,78,82,78,74,91,84,75,29.88,29.74,9,4,0,0.00
2013-8-13,88,84,77,81,79,72,94,85,79,29.74,29.59,16,8,0,0.08
2013-8-14,82,76,71,77,70,63,94,80,70,29.84,29.59,11,4,0,0.60
2013-8-15,72,69,66,67,64,63,93,86,73,29.91,29.83,7,3,0,1.16
2013-8-16,78,72,69,72,69,66,93,88,82,29.93,29.82,7,3,0,0.00
2013-8-17,81,74,69,76,71,66,94,90,84,29.93,29.85,6,2,0,0.42
2013-8-18,86,81,78,77,76,74,92,86,73,29.99,29.92,8,3,0,0.00
2013-8-19,88,77,74,79,74,72,95,91,74,29.96,29.87,5,2,0,0.26
2013-8-20,89,79,73,78,74,71,95,85,67,29.97,29.87,6,2,0,0.00
2013-8-21,89,81,74,79,76,71,95,85,69,30.01,29.91,4,1,0,0.00
2013-8-22,86,80,72,79,76,71,95,87,79,29.94,29.80,7,2,0,0.00
2013-8-23,89,80,71,79,76,70,97,87,72,29.82,29.70,10,3,0,0.34
2013-8-24,86,76,70,72,70,66,97,82,59,30.03,29.80,11,4,0,0.06
2013-8-25,83,77,68,70,67,65,91,72,60,30.12,30.05,8,4,0,0.00
2013-8-26,87,75,65,69,65,59,95,73,39,30.07,29.90,5,2,0,0.00
2013-8-27,84,76,66,70,66,63,92,74,52,29.90,29.76,12,4,0,0.00
2013-8-28,85,80,76,78,74,69,93,84,75,29.79,29.67,11,5,0,0.00
2013-8-29,91,81,73,80,76,72,96,85,68,29.77,29.61,7,3,0,0.66
2013-8-30,84,74,69,74,71,68,97,91,69,29.81,29.74,7,2,0,0.00
2013-8-31,88,84,80,78,76,75,92,77,71,29.78,29.69,5,2,0,0.00
2013-9-1,84,82,80,80,79,78,95,90,86,29.74,29.64,10,6,0,0.00
2013-9-2,86,82,73,82,79,73,99,92,86,29.71,29.60,16,7,0,0.21
2013-9-3,86,81,73,80,78,72,98,90,76,29.68,29.60,10,5,0,1.07
2013-9-4,89,84,73,78,76,72,98,79,71,29.85,29.80,4,2,0,0.01
2013-9-5,88,81,74,81,77,73,97,88,74,29.86,29.79,4,1,0,0.03
2013-9-6,85,76,70,78,72,68,97,90,74,29.89,29.79,10,2,0,0.44
2013-9-7,85,76,66,68,64,60,95,71,45,29.87,29.77,6,2,0,0.00
2013-9-8,85,81,77,74,71,68,84,72,65,29.76,29.66,8,5,0,0.00
2013-9-9,89,81,74,76,73,70,97,78,55,29.93,29.76,6,2,0,0.00
2013-9-10,91,81,72,75,73,70,97,77,51,30.01,29.92,7,2,0,0.00
2013-9-11,90,79,70,75,72,69,97,81,58,29.99,29.87,5,1,0,0.00
2013-9-12,86,78,70,76,73,70,98,84,66,29.88,29.59,8,3,0,0.00
2013-9-13,91,82,71,76,74,69,95,77,52,29.60,29.49,11,3,0,0.03
2013-9-14,83,73,67,70,67,64,98,84,63,29.89,29.59,9,4,0,0.07
2013-9-15,86,74,67,70,66,65,96,80,54,29.99,29.88,7,3,0,0.00
2013-9-16,86,74,68,76,72,67,99,91,71,29.92,29.81,6,1,0,0.73
2013-9-17,80,71,64,68,64,56,93,78,60,30.04,29.90,9,5,0,0.00
2013-9-18,82,70,59,65,61,57,98,75,52,30.03,29.94,8,4,0,0.00
2013-9-19,82,74,64,66,62,58,94,68,48,29.97,29.87,5,2,0,0.00
2013-9-20,84,75,67,67,65,62,96,73,51,29.89,29.77,5,1,0,0.00
2013-9-21,81,74,66,73,70,65,98,88,73,29.77,29.56,7,2,0,0.00
2013-9-22,81,74,69,76,71,64,99,91,81,29.61,29.45,9,3,0,1.11
2013-9-23,78,69,63,66,60,56,92,74,50,29.87,29.61,8,3,0,0.00
2013-9-24,77,66,55,59,57,54,99,76,50,29.90,29.75,5,1,0,0.00
2013-9-25,75,66,56,63,60,55,99,82,64,29.77,29.65,6,2,0,0.00
2013-9-26,81,70,63,68,64,62,97,82,55,29.76,29.64,7,3,0,0.03
2013-9-27,78,70,64,64,61,58,96,76,51,29.91,29.75,11,4,0,0.00
2013-9-28,81,70,63,66,63,60,96,80,58,29.95,29.87,9,4,0,0.00
2013-9-29,82,69,62,70,64,61,97,85,53,29.90,29.77,6,3,0,0.00
2013-9-30,80,67,58,65,61,58,99,82,57,29.85,29.75,6,1,0,0.00
2013-10-1,82,67,56,64,59,55,99,77,45,29.93,29.82,5,1,0,0.00
2013-10-2,82,71,60,71,65,59,97,82,57,29.93,29.83,7,2,0,0.00
2013-10-3,83,74,65,72,69,64,98,87,60,29.95,29.89,7,1,0,0.00
2013-10-4,84,75,66,72,69,65,99,85,62,29.95,29.87,6,1,0,0.00
2013-10-5,85,75,67,72,70,66,98,85,62,29.92,29.85,5,1,0,0.00
2013-10-6,84,77,69,75,72,68,99,86,68,29.89,29.78,3,1,0,0.00
2013-10-7,84,79,76,76,75,74,96,88,74,29.78,29.67,8,2,0,0.00
2013-10-8,77,66,64,75,66,63,99,99,93,29.86,29.70,11,4,0,2.02
2013-10-9,68,65,62,67,64,62,99,99,99,29.84,29.66,12,5,0,2.24
2013-10-10,68,63,60,65,62,60,99,97,89,29.70,29.62,7,3,0,0.01
2013-10-11,70,64,60,65,62,60,99,95,85,29.76,29.65,4,1,0,0.02
2013-10-12,72,67,63,68,65,62,99,95,86,29.83,29.73,3,0,0,0.00
2013-10-13,81,71,65,73,69,65,99,93,74,29.90,29.82,8,3,0,0.00
2013-10-14,74,70,67,70,68,65,97,93,84,29.92,29.86,10,5,0,0.00
2013-10-15,74,68,64,70,66,63,98,95,83,29.89,29.77,7,3,0,0.00
2013-10-16,76,70,67,72,68,66,98,95,82,29.80,29.73,7,2,0,0.00
2013-10-17,76,70,62,70,66,61,99,90,73,29.78,29.68,8,3,0,0.00
2013-10-18,79,72,68,71,69,67,98,90,69,29.80,29.68,6,2,0,0.05
2013-10-19,78,71,67,75,70,66,99,98,90,29.75,29.63,6,2,0,0.37
2013-10-20,72,66,60,70,61,57,97,84,69,29.90,29.66,10,3,0,0.00
2013-10-21,73,64,56,62,57,52,94,81,59,29.95,29.80,6,2,0,0.00
2013-10-22,71,64,59,63,59,54,96,84,68,29.80,29.65,3,1,0,0.03
2013-10-23,74,63,54,63,58,47,99,85,53,29.75,29.45,8,2,0,0.43
2013-10-24,63,52,43,46,41,37,88,67,40,29.99,29.76,8,2,0,0.00
2013-10-25,61,50,42,45,38,33,93,67,36,30.18,29.98,9,2,0,0.00
2013-10-26,64,51,39,48,42,37,94,74,50,30.18,29.93,5,1,0,0.00
2013-10-27,69,57,50,50,45,37,96,65,44,29.97,29.88,4,1,0,0.00
2013-10-28,73,59,48,59,52,47,99,80,44,30.09,29.97,3,0,0,0.00
2013-10-29,76,62,51,59,55,50,97,81,52,30.15,30.05,5,1,0,0.00
2013-10-30,74,63,55,64,58,54,99,86,58,30.14,30.01,5,1,0,0.00
2013-10-31,72,65,57,69,64,56,99,95,81,30.05,29.83,7,1,0,0.01
2013-11-1,75,72,67,73,71,67,99,95,91,29.82,29.54,11,6,0,0.10
2013-11-2,74,67,62,73,65,60,99,95,87,29.66,29.47,12,3,0,1.24
2013-11-3,66,57,51,61,48,42,96,72,46,30.14,29.65,7,3,0,0.00
2013-11-4,60,53,48,50,44,38,94,72,54,30.30,30.14,8,4,0,0.00
2013-11-5,74,62,52,61,56,50,95,82,57,30.26,30.19,9,4,0,0.00
2013-11-6,68,63,58,67,62,57,99,96,88,30.20,29.95,7,3,0,0.24
2013-11-7,70,66,56,68,65,46,99,96,69,29.90,29.70,8,2,0,0.28
2013-11-8,61,51,40,46,38,32,95,65,39,30.14,29.82,7,2,0,0.00
2013-11-9,63,52,38,54,46,38,99,82,57,30.23,30.02,4,1,0,0.00
2013-11-10,68,60,53,57,50,44,90,71,45,30.04,29.89,8,3,0,0.00
2013-11-11,63,52,44,48,44,39,98,75,57,30.14,29.97,8,2,0,0.00
2013-11-12,69,50,37,49,41,29,99,73,37,30.14,29.82,19,3,0,0.00
2013-11-13,47,38,31,33,26,23,96,65,39,30.31,30.13,9,3,0,0.02
2013-11-14,58,42,28,38,29,17,93,66,21,30.31,30.16,6,1,0,0.00
2013-11-15,71,55,40,61,50,38,99,85,48,30.19,30.03,4,1,0,0.28
2013-11-16,76,64,58,67,62,58,99,93,73,30.06,29.96,5,2,0,0.06
2013-11-17,78,66,58,70,64,57,99,94,76,29.99,29.75,7,2,0,0.01
2013-11-18,73,67,59,71,66,51,99,96,74,29.75,29.56,10,4,0,0.03
2013-11-19,59,53,46,50,39,35,78,60,41,30.09,29.68,11,4,0,0.00
2013-11-20,60,51,44,50,46,39,92,81,67,30.21,30.06,12,4,0,0.00
2013-11-21,65,57,53,62,56,50,99,95,86,30.26,30.18,8,3,0,0.01
2013-11-22,72,61,52,64,59,52,99,93,77,30.18,29.89,9,2,0,0.00
2013-11-23,68,58,50,64,57,42,99,95,74,29.89,29.80,6,2,0,0.07
2013-11-24,50,39,31,40,21,11,71,49,33,30.35,29.87,12,4,0,0.00
2013-11-25,46,36,28,38,25,14,92,64,49,30.40,30.19,9,3,0,0.00
2013-11-26,65,54,40,62,52,38,99,94,81,30.19,29.69,7,3,0,0.05
2013-11-27,56,44,36,55,42,30,98,96,80,29.92,29.31,7,3,0,0.10
2013-11-28,47,36,29,32,28,25,93,74,48,30.32,29.94,7,2,0,0.00
2013-11-29,54,44,34,36,34,30,93,69,40,30.40,30.29,9,3,0,0.00
2013-11-30,58,47,39,49,43,34,94,85,70,30.38,30.14,14,4,0,0.00
2013-12-1,61,51,44,54,49,43,99,93,77,30.12,29.83,5,1,0,0.01
2013-12-2,57,51,46,52,49,44,99,92,79,29.83,29.59,5,2,0,0.00
2013-12-3,61,50,40,49,42,37,97,79,45,29.85,29.66,5,1,0,0.00
2013-12-4,64,58,52,63,57,50,99,98,92,29.91,29.83,3,0,0,0.40
2013-12-5,72,63,51,70,62,51,99,97,90,30.00,29.91,6,1,0,0.00
2013-12-6,71,67,63,69,66,62,99,97,91,29.98,29.88,10,5,0,0.00
2013-12-7,68,54,44,67,54,43,99,98,95,30.22,29.88,12,5,0,0.46
2013-12-8,50,45,43,49,45,43,99,98,94,30.20,30.06,10,4,0,0.16
2013-12-9,67,55,45,66,54,45,99,98,94,30.06,29.89,5,1,0,0.00
2013-12-10,65,55,38,64,54,38,99,98,96,30.13,29.65,14,3,0,0.16
2013-12-11,54,40,32,38,33,28,99,78,46,30.29,30.10,4,1,0,0.00
2013-12-12,49,40,32,33,31,28,95,74,46,30.22,30.06,6,2,0,0.00
2013-12-13,50,39,28,35,30,24,99,75,38,30.25,30.11,6,1,0,0.00
2013-12-14,65,53,35,65,49,34,99,89,68,30.13,29.54,9,3,0,2.58
2013-12-15,61,54,43,61,52,39,99,96,88,29.88,29.48,5,2,0,0.12
2013-12-16,56,44,36,44,38,34,99,81,49,30.02,29.87,6,2,0,0.00
2013-12-17,60,54,40,53,48,39,99,82,69,30.00,29.77,14,5,0,0.00
2013-12-18,56,45,34,50,32,26,85,64,38,30.15,29.79,8,2,0,0.00
2013-12-19,58,46,32,49,41,29,99,83,59,30.19,30.10,7,2,0,0.00
2013-12-20,68,57,45,63,55,45,99,94,83,30.11,29.98,5,1,0,0.00
2013-12-21,69,64,58,66,63,58,99,97,91,30.02,29.95,6,2,0,0.00
2013-12-22,72,67,64,70,66,64,99,98,93,29.98,29.92,8,4,0,0.93
2013-12-23,70,66,60,69,66,60,99,98,94,29.96,29.83,11,5,0,0.23
2013-12-24,60,46,38,60,42,31,99,89,72,30.19,29.83,12,3,0,0.34
2013-12-25,46,39,31,38,33,26,91,80,69,30.33,30.17,6,3,0,0.00
2013-12-26,47,44,41,47,42,38,99,95,91,30.16,30.03,5,2,0,0.05
2013-12-27,54,44,38,42,38,35,95,80,53,30.24,30.11,6,2,0,0.01
2013-12-28,64,46,36,47,39,34,94,76,44,30.22,29.97,4,1,0,0.00
2013-12-29,65,61,51,64,59,46,99,94,81,29.97,29.53,21,5,0,0.41
2013-12-30,59,51,45,52,49,44,99,92,74,29.92,29.72,4,1,0,0.01
2013-12-31,55,47,39,46,40,34,99,78,50,30.18,29.89,5,1,0,0.00
2014-1-1,57,46,36,49,40,31,99,80,61,30.23,29.95,3,1,0,0.07
2014-1-2,60,51,47,60,51,47,99,99,98,29.95,29.31,8,1,0,0.96